createdAt,value
2019-03-01T00:01:28.092Z,11.10
2019-03-01T00:04:42.743Z,11.10
2019-03-01T00:08:29.008Z,10.90
2019-03-01T00:11:40.318Z,11.00
2019-03-01T00:14:59.761Z,10.90
2019-03-01T00:18:15.841Z,10.90
2019-03-01T00:21:51.517Z,11.00
2019-03-01T00:25:22.614Z,11.10
2019-03-01T00:28:22.398Z,11.30
2019-03-01T00:31:30.781Z,11.20
2019-03-01T00:34:50.169Z,11.20
2019-03-01T00:38:35.380Z,11.40
2019-03-01T00:41:53.207Z,11.00
2019-03-01T00:44:32.382Z,11.20
2019-03-01T00:47:04.416Z,11.30
2019-03-01T01:26:42.272Z,10.10
2019-03-01T01:29:17.060Z,10.20
2019-03-01T01:31:48.914Z,10.10
2019-03-01T01:34:20.795Z,10.30
2019-03-01T01:36:53.135Z,10.20
2019-03-01T01:39:24.963Z,10.40
2019-03-01T01:41:56.829Z,10.10
2019-03-01T01:44:28.950Z,10.10
2019-03-01T01:47:00.851Z,10.20
2019-03-01T01:49:33.065Z,10.20
2019-03-01T01:52:05.978Z,10.00
2019-03-01T01:54:37.831Z,10.20
2019-03-01T01:57:09.711Z,9.90
2019-03-01T01:59:42.046Z,9.80
2019-03-01T02:02:14.373Z,9.50
2019-03-01T02:04:46.195Z,9.20
2019-03-01T02:07:19.075Z,9.40
2019-03-01T02:09:51.858Z,9.20
2019-03-01T02:12:24.105Z,9.30
2019-03-01T02:14:55.946Z,9.20
2019-03-01T02:17:28.168Z,9.50
2019-03-01T02:20:00.036Z,9.70
2019-03-01T02:22:31.884Z,9.60
2019-03-01T02:25:05.308Z,9.50
2019-03-01T02:27:37.154Z,9.30
2019-03-01T02:30:16.274Z,9.30
2019-03-01T02:32:52.221Z,9.20
2019-03-01T02:35:28.377Z,9.20
2019-03-01T02:38:00.421Z,9.30
2019-03-01T02:40:36.216Z,9.40
2019-03-01T02:43:08.083Z,9.50
2019-03-01T02:45:40.337Z,9.50
2019-03-01T02:48:12.184Z,9.60
2019-03-01T02:50:44.455Z,9.40
2019-03-01T02:53:16.860Z,9.30
2019-03-01T02:55:48.769Z,9.00
2019-03-01T02:58:20.849Z,9.20
2019-03-01T03:00:53.251Z,9.40
2019-03-01T03:03:25.118Z,9.00
2019-03-01T03:06:14.864Z,9.00
2019-03-01T03:08:46.730Z,8.70
2019-03-01T03:11:19.009Z,8.90
2019-03-01T03:13:51.164Z,8.90
2019-03-01T03:16:23.115Z,8.70
2019-03-01T03:18:55.603Z,8.80
2019-03-01T03:21:27.502Z,9.10
2019-03-01T03:23:59.367Z,9.30
2019-03-01T03:26:31.335Z,9.10
2019-03-01T03:29:03.195Z,9.10
2019-03-01T03:31:35.513Z,9.30
2019-03-01T03:34:07.506Z,8.80
2019-03-01T03:36:39.443Z,9.20
2019-03-01T03:39:13.398Z,9.00
2019-03-01T03:41:45.743Z,8.80
2019-03-01T03:44:17.732Z,8.80
2019-03-01T03:46:49.630Z,8.90
2019-03-01T03:49:22.454Z,8.70
2019-03-01T03:51:54.369Z,9.00
2019-03-01T03:54:26.237Z,8.90
2019-03-01T03:56:58.185Z,9.10
2019-03-01T03:59:31.457Z,9.20
2019-03-01T04:02:03.424Z,9.30
2019-03-01T04:04:35.304Z,9.30
2019-03-01T04:07:07.302Z,9.50
2019-03-01T04:09:39.155Z,9.60
2019-03-01T04:12:11.376Z,9.40
2019-03-01T04:14:43.385Z,9.30
2019-03-01T04:17:15.652Z,9.30
2019-03-01T04:19:47.510Z,9.00
2019-03-01T04:22:19.696Z,9.30
2019-03-01T04:24:51.563Z,9.20
2019-03-01T04:27:23.517Z,9.20
2019-03-01T04:29:56.472Z,9.30
2019-03-01T04:32:28.358Z,9.40
2019-03-01T04:35:00.974Z,9.40
2019-03-01T04:37:33.020Z,9.20
2019-03-01T04:40:06.817Z,9.10
2019-03-01T04:42:39.411Z,9.10
2019-03-01T04:45:12.626Z,9.00
2019-03-01T04:47:45.295Z,9.00
2019-03-01T04:50:17.159Z,9.10
2019-03-01T04:52:49.034Z,9.20
2019-03-01T04:55:24.256Z,9.40
2019-03-01T04:57:56.194Z,9.40
2019-03-01T05:00:28.046Z,9.10
2019-03-01T05:03:00.332Z,9.40
2019-03-01T05:05:32.497Z,9.30
2019-03-01T05:08:04.473Z,9.50
2019-03-01T05:10:36.370Z,9.40
2019-03-01T05:13:08.224Z,9.70
2019-03-01T05:15:40.245Z,9.40
2019-03-01T05:18:12.287Z,9.50
2019-03-01T05:20:44.649Z,9.50
2019-03-01T05:23:16.538Z,9.50
2019-03-01T05:25:48.443Z,9.30
2019-03-01T05:28:20.960Z,9.30
2019-03-01T05:30:52.892Z,9.20
2019-03-01T05:33:25.880Z,9.30
2019-03-01T05:35:57.813Z,9.60
2019-03-01T05:38:29.703Z,9.40
2019-03-01T05:41:02.311Z,9.40
2019-03-01T05:43:34.194Z,9.60
2019-03-01T05:46:06.130Z,9.30
2019-03-01T05:48:38.373Z,9.60
2019-03-01T05:51:10.676Z,9.50
2019-03-01T05:53:43.005Z,9.30
2019-03-01T05:56:14.906Z,9.50
2019-03-01T05:59:25.061Z,9.00
2019-03-01T06:03:00.759Z,9.50
2019-03-01T06:05:38.194Z,9.30
2019-03-01T06:09:05.124Z,9.40
2019-03-01T06:12:42.150Z,9.30
2019-03-01T06:15:51.587Z,9.40
2019-03-01T06:19:29.261Z,9.50
2019-03-01T06:23:03.625Z,9.40
2019-03-01T06:26:19.690Z,9.50
2019-03-01T06:29:31.297Z,9.30
2019-03-01T06:33:00.490Z,9.20
2019-03-01T06:35:59.262Z,9.10
2019-03-01T06:39:54.774Z,9.20
2019-03-01T06:43:43.515Z,9.20
2019-03-01T06:47:06.706Z,9.20
2019-03-01T06:49:54.707Z,9.40
2019-03-01T06:52:26.570Z,9.30
2019-03-01T06:54:58.454Z,9.40
2019-03-01T06:57:30.444Z,9.40
2019-03-01T07:00:04.705Z,9.50
2019-03-01T07:02:44.209Z,9.50
2019-03-01T07:05:16.130Z,9.40
2019-03-01T07:07:47.963Z,9.50
2019-03-01T07:10:19.858Z,9.50
2019-03-01T07:12:51.708Z,9.40
2019-03-01T07:15:23.977Z,9.70
2019-03-01T07:17:55.897Z,9.70
2019-03-01T07:20:27.794Z,9.30
2019-03-01T07:22:59.649Z,8.70
2019-03-01T07:25:31.912Z,8.00
2019-03-01T07:28:04.585Z,7.80
2019-03-01T07:30:36.446Z,8.00
2019-03-01T07:33:08.435Z,7.70
2019-03-01T07:35:40.326Z,7.40
2019-03-01T07:38:12.220Z,7.70
2019-03-01T07:40:44.107Z,7.70
2019-03-01T07:43:16.375Z,7.80
2019-03-01T07:45:48.261Z,7.90
2019-03-01T07:49:08.865Z,7.80
2019-03-01T07:51:40.815Z,8.00
2019-03-01T07:54:13.260Z,8.10
2019-03-01T07:56:47.565Z,8.10
2019-03-01T07:59:19.588Z,8.20
2019-03-01T08:01:51.558Z,8.40
2019-03-01T08:04:28.521Z,8.50
2019-03-01T08:06:57.440Z,8.50
2019-03-01T08:09:29.294Z,8.70
2019-03-01T08:12:03.678Z,8.60
2019-03-01T08:14:34.726Z,8.50
2019-03-01T08:17:06.663Z,8.60
2019-03-01T08:19:38.506Z,8.90
2019-03-01T08:22:10.396Z,8.30
2019-03-01T08:24:42.758Z,8.40
2019-03-01T08:27:16.221Z,8.00
2019-03-01T08:29:48.072Z,8.10
2019-03-01T08:32:20.344Z,8.10
2019-03-01T08:34:53.719Z,7.80
2019-03-01T08:37:25.795Z,8.00
2019-03-01T08:39:57.666Z,7.80
2019-03-01T08:42:32.679Z,7.90
2019-03-01T08:45:03.580Z,7.90
2019-03-01T08:47:35.483Z,7.90
2019-03-01T08:50:09.044Z,8.30
2019-03-01T08:52:41.132Z,8.30
2019-03-01T08:55:15.861Z,8.60
2019-03-01T08:57:47.763Z,8.60
2019-03-01T09:00:26.604Z,8.60
2019-03-01T09:03:00.022Z,8.50
2019-03-01T09:05:31.998Z,8.60
2019-03-01T09:08:03.909Z,8.60
2019-03-01T09:10:35.798Z,8.80
2019-03-01T09:13:07.686Z,9.00
2019-03-01T09:15:39.546Z,8.80
2019-03-01T09:18:14.396Z,8.90
2019-03-01T09:20:45.155Z,8.50
2019-03-01T09:23:24.386Z,8.90
2019-03-01T09:25:50.649Z,9.10
2019-03-01T09:28:22.991Z,8.90
2019-03-01T09:30:54.835Z,8.80
2019-03-01T09:33:26.777Z,8.80
2019-03-01T09:36:07.174Z,9.10
2019-03-01T09:38:39.436Z,9.30
2019-03-01T09:41:12.591Z,9.20
2019-03-01T09:43:44.617Z,9.20
2019-03-01T09:46:17.278Z,9.10
2019-03-01T09:48:49.687Z,9.50
2019-03-01T09:51:23.067Z,9.40
2019-03-01T09:53:54.914Z,9.20
2019-03-01T09:56:26.818Z,9.50
2019-03-01T09:58:58.676Z,9.40
2019-03-01T10:01:30.563Z,9.40
2019-03-01T10:04:02.567Z,9.50
2019-03-01T10:06:38.139Z,9.40
2019-03-01T10:09:12.397Z,9.40
2019-03-01T10:11:44.740Z,9.40
2019-03-01T10:14:16.588Z,9.50
2019-03-01T10:16:52.378Z,9.40
2019-03-01T10:19:24.616Z,9.20
2019-03-01T10:21:56.793Z,9.20
2019-03-01T10:24:28.665Z,9.30
2019-03-01T10:27:00.848Z,9.90
2019-03-01T10:29:33.114Z,10.30
2019-03-01T10:32:05.448Z,10.20
2019-03-01T10:34:37.303Z,9.60
2019-03-01T10:37:09.219Z,9.50
2019-03-01T10:39:41.060Z,9.60
2019-03-01T10:42:13.252Z,10.10
2019-03-01T10:44:45.394Z,9.80
2019-03-01T10:47:17.565Z,9.90
2019-03-01T10:49:49.421Z,9.80
2019-03-01T10:52:21.338Z,9.80
2019-03-01T10:54:53.225Z,9.60
2019-03-01T10:57:25.301Z,9.40
2019-03-01T10:59:58.164Z,9.40
2019-03-01T11:02:30.762Z,9.80
2019-03-01T11:05:02.601Z,9.90
2019-03-01T11:07:34.596Z,9.80
2019-03-01T11:10:07.852Z,9.70
2019-03-01T11:12:39.764Z,9.60
2019-03-01T11:15:12.104Z,9.80
2019-03-01T11:17:44.054Z,10.10
2019-03-01T11:20:16.378Z,9.90
2019-03-01T11:22:49.453Z,10.00
2019-03-01T11:25:22.400Z,9.50
2019-03-01T11:27:55.256Z,10.00
2019-03-01T11:30:29.391Z,10.00
2019-03-01T11:33:02.414Z,9.60
2019-03-01T11:35:34.282Z,9.60
2019-03-01T11:38:06.231Z,9.60
2019-03-01T11:40:38.136Z,9.40
2019-03-01T11:43:10.644Z,9.30
2019-03-01T11:45:42.618Z,9.50
2019-03-01T11:48:14.900Z,9.60
2019-03-01T11:50:47.375Z,9.40
2019-03-01T11:53:19.783Z,9.70
2019-03-01T11:55:51.639Z,9.80
2019-03-01T11:58:27.600Z,9.50
2019-03-01T12:00:59.435Z,9.60
2019-03-01T12:03:31.372Z,9.30
2019-03-01T12:06:03.521Z,9.40
2019-03-01T12:08:35.445Z,9.60
2019-03-01T12:11:16.948Z,9.70
2019-03-01T12:13:48.885Z,9.90
2019-03-01T12:16:20.735Z,9.70
2019-03-01T12:18:52.666Z,9.80
2019-03-01T12:21:24.891Z,9.70
2019-03-01T12:23:56.932Z,9.70
2019-03-01T12:26:28.878Z,9.50
2019-03-01T12:29:01.366Z,9.50
2019-03-01T12:31:33.512Z,9.50
2019-03-01T12:34:05.766Z,9.80
2019-03-01T12:36:37.968Z,9.80
2019-03-01T12:39:10.790Z,9.60
2019-03-01T12:41:42.759Z,9.80
2019-03-01T12:44:15.271Z,9.80
2019-03-01T12:46:47.171Z,9.70
2019-03-01T12:49:19.090Z,9.90
2019-03-01T12:51:50.959Z,10.00
2019-03-01T12:54:23.542Z,9.90
2019-03-01T12:56:55.704Z,9.80
2019-03-01T12:59:28.235Z,9.50
2019-03-01T13:02:00.566Z,9.60
2019-03-01T13:04:32.502Z,9.70
2019-03-01T13:07:04.364Z,9.70
2019-03-01T13:09:36.276Z,9.60
2019-03-01T13:12:08.117Z,9.40
2019-03-01T13:14:40.714Z,9.60
2019-03-01T13:17:13.210Z,9.80
2019-03-01T13:19:45.821Z,9.80
2019-03-01T13:22:18.139Z,9.40
2019-03-01T13:24:53.435Z,9.40
2019-03-01T13:27:23.999Z,9.20
2019-03-01T13:29:58.630Z,9.40
2019-03-01T13:32:29.441Z,9.70
2019-03-01T13:35:01.737Z,9.60
2019-03-01T13:37:34.012Z,9.50
2019-03-01T13:40:06.667Z,9.70
2019-03-01T13:42:38.820Z,9.90
2019-03-01T13:45:15.043Z,9.90
2019-03-01T13:47:47.990Z,9.80
2019-03-01T13:50:20.216Z,9.90
2019-03-01T13:52:52.303Z,10.10
2019-03-01T13:55:24.278Z,10.00
2019-03-01T13:57:57.676Z,10.10
2019-03-01T14:00:30.405Z,10.20
2019-03-01T14:03:02.271Z,10.20
2019-03-01T14:05:35.175Z,10.30
2019-03-01T14:08:09.315Z,10.20
2019-03-01T14:10:43.139Z,10.10
2019-03-01T14:13:15.743Z,10.10
2019-03-01T14:15:47.781Z,10.10
2019-03-01T14:18:19.792Z,10.10
2019-03-01T14:20:54.411Z,10.10
2019-03-01T14:23:26.037Z,10.30
2019-03-01T14:26:00.294Z,10.40
2019-03-01T14:28:32.773Z,10.00
2019-03-01T14:31:07.445Z,10.10
2019-03-01T14:33:38.254Z,10.10
2019-03-01T14:36:10.308Z,10.20
2019-03-01T14:38:43.888Z,10.00
2019-03-01T14:41:15.743Z,9.90
2019-03-01T14:43:48.318Z,10.00
2019-03-01T14:46:21.895Z,10.00
2019-03-01T14:48:54.010Z,9.70
2019-03-01T14:51:25.901Z,9.50
2019-03-01T14:53:58.250Z,9.40
2019-03-01T14:57:06.861Z,9.50
2019-03-01T15:00:26.333Z,9.50
2019-03-01T15:03:31.848Z,9.50
2019-03-01T15:06:04.738Z,9.40
2019-03-01T15:08:40.418Z,9.60
2019-03-01T15:11:20.204Z,9.70
2019-03-01T15:13:54.938Z,9.90
2019-03-01T15:16:26.820Z,10.00
2019-03-01T15:18:58.761Z,10.10
2019-03-01T15:21:34.046Z,10.00
2019-03-01T15:24:04.385Z,10.00
2019-03-01T15:26:36.542Z,10.20
2019-03-01T15:29:08.779Z,10.10
2019-03-01T15:31:40.999Z,10.10
2019-03-01T15:34:13.308Z,10.00
2019-03-01T15:36:45.491Z,9.80
2019-03-01T15:39:19.998Z,9.70
2019-03-01T15:41:51.889Z,9.50
2019-03-01T15:44:24.092Z,9.70
2019-03-01T15:46:56.210Z,9.70
2019-03-01T15:49:28.620Z,9.60
2019-03-01T15:52:00.988Z,9.70
2019-03-01T15:54:35.853Z,9.80
2019-03-01T15:57:06.673Z,9.80
2019-03-01T15:59:38.852Z,9.60
2019-03-01T16:02:11.280Z,9.80
2019-03-01T16:04:43.746Z,10.00
2019-03-01T16:07:16.038Z,9.90
2019-03-01T16:09:48.224Z,9.90
2019-03-01T16:12:20.300Z,9.50
2019-03-01T16:14:52.576Z,9.70
2019-03-01T16:17:25.393Z,9.90
2019-03-01T16:19:57.680Z,9.70
2019-03-01T16:22:29.725Z,9.50
2019-03-01T16:25:01.738Z,9.60
2019-03-01T16:27:34.076Z,9.60
2019-03-01T16:30:08.926Z,9.80
2019-03-01T16:32:49.233Z,9.60
2019-03-01T16:35:16.720Z,9.50
2019-03-01T16:37:50.269Z,9.50
2019-03-01T16:40:22.114Z,9.50
2019-03-01T16:42:54.764Z,9.30
2019-03-01T16:45:26.591Z,9.40
2019-03-01T16:48:00.835Z,9.20
2019-03-01T16:50:33.163Z,9.40
2019-03-01T16:53:05.541Z,9.30
2019-03-01T16:55:37.763Z,9.40
2019-03-01T16:58:10.062Z,9.40
2019-03-01T17:00:45.075Z,9.30
2019-03-01T17:03:18.264Z,9.50
2019-03-01T17:05:50.396Z,9.20
2019-03-01T17:08:22.350Z,9.30
2019-03-01T17:10:54.348Z,9.60
2019-03-01T17:13:27.082Z,9.70
2019-03-01T17:16:00.031Z,9.40
2019-03-01T17:18:32.895Z,9.30
2019-03-01T17:21:05.158Z,9.40
2019-03-01T17:23:39.202Z,9.50
2019-03-01T17:26:10.640Z,9.20
2019-03-01T17:28:43.173Z,9.40
2019-03-01T17:31:15.032Z,9.40
2019-03-01T17:33:48.804Z,9.40
2019-03-01T17:36:20.661Z,9.20
2019-03-01T17:38:52.573Z,9.40
2019-03-01T17:41:24.893Z,9.30
2019-03-01T17:43:57.113Z,9.20
2019-03-01T17:46:29.821Z,9.10
2019-03-01T17:49:03.876Z,9.00
2019-03-01T17:51:36.028Z,9.00
2019-03-01T17:54:08.221Z,9.10
2019-03-01T17:56:40.763Z,9.30
2019-03-01T17:59:13.032Z,9.20
2019-03-01T18:01:46.171Z,9.30
2019-03-01T18:04:18.953Z,9.20
2019-03-01T18:06:52.281Z,9.40
2019-03-01T18:09:24.836Z,9.20
2019-03-01T18:11:57.030Z,9.30
2019-03-01T18:14:29.622Z,9.40
2019-03-01T18:17:02.567Z,9.20
2019-03-01T18:19:35.513Z,9.10
2019-03-01T18:22:07.817Z,8.90
2019-03-01T18:24:39.975Z,8.80
2019-03-01T18:27:17.856Z,9.00
2019-03-01T18:29:45.935Z,8.90
2019-03-01T18:32:18.272Z,9.00
2019-03-01T18:34:50.600Z,8.90
2019-03-01T18:37:22.498Z,9.10
2019-03-01T18:39:54.731Z,9.00
2019-03-01T18:42:27.038Z,8.90
2019-03-01T18:44:58.914Z,8.90
2019-03-01T18:47:31.534Z,9.00
2019-03-01T18:50:03.376Z,9.00
2019-03-01T18:52:35.295Z,9.00
2019-03-01T18:55:08.636Z,9.10
2019-03-01T18:57:41.017Z,9.20
2019-03-01T19:00:25.441Z,9.20
2019-03-01T19:03:01.009Z,9.10
2019-03-01T19:05:31.900Z,9.20
2019-03-01T19:08:05.866Z,9.20
2019-03-01T19:10:38.053Z,9.30
2019-03-01T19:13:09.950Z,9.30
2019-03-01T19:15:41.912Z,9.30
2019-03-01T19:18:16.835Z,9.30
2019-03-01T19:20:47.711Z,9.40
2019-03-01T19:23:20.379Z,9.40
2019-03-01T19:25:52.752Z,9.50
2019-03-01T19:28:26.761Z,9.40
2019-03-01T19:31:00.673Z,9.30
2019-03-01T19:33:34.663Z,9.40
2019-03-01T19:36:06.653Z,9.40
2019-03-01T19:38:38.925Z,9.30
2019-03-01T19:41:12.033Z,9.40
2019-03-01T19:43:45.644Z,9.30
2019-03-01T19:46:17.826Z,9.30
2019-03-01T19:48:49.730Z,9.30
2019-03-01T19:51:22.709Z,9.30
2019-03-01T19:53:57.355Z,9.20
2019-03-01T19:56:29.252Z,9.00
2019-03-01T19:59:01.156Z,9.10
2019-03-01T20:01:33.145Z,9.00
2019-03-01T20:04:05.174Z,9.00
2019-03-01T20:06:39.744Z,8.80
2019-03-01T20:09:13.054Z,8.80
2019-03-01T20:11:45.935Z,9.00
2019-03-01T20:14:18.586Z,8.80
2019-03-01T20:16:54.905Z,8.60
2019-03-01T20:19:25.420Z,8.70
2019-03-01T20:21:57.277Z,8.70
2019-03-01T20:24:29.641Z,8.80
2019-03-01T20:27:03.094Z,8.70
2019-03-01T20:29:35.145Z,8.90
2019-03-01T20:32:07.316Z,8.90
2019-03-01T20:34:39.291Z,8.70
2019-03-01T20:37:11.625Z,8.80
2019-03-01T20:39:44.012Z,8.60
2019-03-01T20:42:17.771Z,8.50
2019-03-01T20:44:50.294Z,8.30
2019-03-01T20:47:24.139Z,8.50
2019-03-01T20:49:57.739Z,8.50
2019-03-01T20:52:30.317Z,8.70
2019-03-01T20:55:02.240Z,8.70
2019-03-01T20:57:34.107Z,8.90
2019-03-01T21:00:08.193Z,8.90
2019-03-01T21:02:40.238Z,8.70
2019-03-01T21:05:12.623Z,8.60
2019-03-01T21:07:47.640Z,8.60
2019-03-01T21:10:20.786Z,8.40
2019-03-01T21:12:52.655Z,8.40
2019-03-01T21:15:24.674Z,8.50
2019-03-01T21:17:58.450Z,8.40
2019-03-01T21:20:30.211Z,8.50
2019-03-01T21:23:02.101Z,8.60
2019-03-01T21:25:35.949Z,8.40
2019-03-01T21:28:08.885Z,8.30
2019-03-01T21:30:41.609Z,8.60
2019-03-01T21:33:13.882Z,8.50
2019-03-01T21:35:47.731Z,8.50
2019-03-01T21:38:20.722Z,8.70
2019-03-01T21:40:52.911Z,8.50
2019-03-01T21:43:24.772Z,8.50
2019-03-01T21:45:58.925Z,8.30
2019-03-01T21:48:31.692Z,8.50
2019-03-01T21:51:03.602Z,8.20
2019-03-01T21:53:36.529Z,8.40
2019-03-01T21:56:09.522Z,8.10
2019-03-01T21:58:42.872Z,8.10
2019-03-01T22:01:14.890Z,8.30
2019-03-01T22:03:46.759Z,8.50
2019-03-01T22:06:20.679Z,8.70
2019-03-01T22:08:52.537Z,8.50
2019-03-01T22:11:25.226Z,8.40
2019-03-01T22:13:58.017Z,8.40
2019-03-01T22:16:32.714Z,8.50
2019-03-01T22:19:04.250Z,8.30
2019-03-01T22:21:36.159Z,8.20
2019-03-01T22:24:08.419Z,8.20
2019-03-01T22:26:40.795Z,8.10
2019-03-01T22:29:13.027Z,8.20
2019-03-01T22:31:45.127Z,8.10
2019-03-01T22:34:16.998Z,8.10
2019-03-01T22:36:52.565Z,8.40
2019-03-01T22:39:23.351Z,8.50
2019-03-01T22:41:55.604Z,8.70
2019-03-01T22:44:28.151Z,8.40
2019-03-01T22:47:00.732Z,8.60
2019-03-01T22:49:33.866Z,8.50
2019-03-01T22:52:05.796Z,8.50
2019-03-01T22:54:37.679Z,8.60
2019-03-01T22:57:14.384Z,8.60
2019-03-01T22:59:47.367Z,8.30
2019-03-01T23:02:22.856Z,8.50
2019-03-01T23:04:54.840Z,8.40
2019-03-01T23:07:27.326Z,8.60
2019-03-01T23:09:59.751Z,8.50
2019-03-01T23:12:31.655Z,8.50
2019-03-01T23:15:06.806Z,8.50
2019-03-01T23:17:37.731Z,8.40
2019-03-01T23:20:09.831Z,8.40
2019-03-01T23:22:42.717Z,8.50
2019-03-01T23:25:15.309Z,8.00
2019-03-01T23:27:47.982Z,8.00
2019-03-01T23:30:20.239Z,8.20
2019-03-01T23:32:55.814Z,8.30
2019-03-01T23:35:26.739Z,8.30
2019-03-01T23:37:58.969Z,8.20
2019-03-01T23:40:32.737Z,8.30
2019-03-01T23:43:04.442Z,8.30
2019-03-01T23:45:36.628Z,8.20
2019-03-01T23:48:10.688Z,8.30
2019-03-01T23:50:43.351Z,8.30
2019-03-01T23:53:15.929Z,8.30
2019-03-01T23:55:50.984Z,8.30
2019-03-01T23:58:21.359Z,8.60
